Time;durP1;ratioP1;P1;durP2;ratioP2;P2;SDS_P1;SDS_P2;PMS_P1;PMS_P2;Temp;Humidity;BMP_temperature;BMP_pressure;BME280_temperature;BME280_humidity;BME280_pressure;Samples;Min_cycle;Max_cycle;Signal;HPM_P1;HPM_P2
2023/09/26 06:02:24;;;;;;;13.30;7.40;;;;;;;;;;5033635;23;20543;-71
2023/09/26 06:04:50;;;;;;;25.20;9.37;;;;;;;;;;4942607;28;20436;-71
2023/09/26 06:07:16;;;;;;;11.50;7.70;;;;;;;;;;4942743;28;20430;-71
2023/09/26 06:09:42;;;;;;;13.23;7.93;;;;;;;;;;4942078;28;20427;-69
2023/09/26 06:12:08;;;;;;;15.03;8.30;;;;;;;;;;4949505;29;20507;-71
2023/09/26 06:14:34;;;;;;;14.60;8.47;;;;;;;;;;4950001;28;20444;-72
2023/09/26 06:17:01;;;;;;;14.10;7.70;;;;;;;;;;4937337;29;20440;-72
2023/09/26 06:19:27;;;;;;;14.00;8.20;;;;;;;;;;4945818;29;20496;-71
2023/09/26 06:21:53;;;;;;;17.43;8.13;;;;;;;;;;4952160;29;20816;-70
2023/09/26 06:24:19;;;;;;;11.67;7.13;;;;;;;;;;4944646;28;20844;-72
2023/09/26 06:26:45;;;;;;;9.97;7.00;;;;;;;;;;4942567;29;20449;-72
2023/09/26 06:29:12;;;;;;;12.50;7.57;;;;;;;;;;4942121;29;20923;-72
2023/09/26 06:31:42;;;;;;;12.57;7.30;;;;;;;;;;4945842;28;20444;-72
2023/09/26 06:34:08;;;;;;;10.80;7.33;;;;;;;;;;4946899;28;20531;-72
2023/09/26 06:36:34;;;;;;;13.30;7.83;;;;;;;;;;4943945;29;20472;-72
2023/09/26 06:39:00;;;;;;;12.90;8.20;;;;;;;;;;4940057;29;20555;-69
2023/09/26 06:41:26;;;;;;;12.73;7.50;;;;;;;;;;4944121;29;20555;-72
2023/09/26 06:43:52;;;;;;;14.23;7.57;;;;;;;;;;4945706;29;20829;-72
2023/09/26 06:46:18;;;;;;;20.13;8.93;;;;;;;;;;4946254;29;20935;-73
2023/09/26 06:48:44;;;;;;;9.73;6.90;;;;;;;;;;4943398;29;20444;-72
2023/09/26 06:51:11;;;;;;;15.77;8.20;;;;;;;;;;4946903;28;20463;-72
2023/09/26 06:53:37;;;;;;;12.73;6.30;;;;;;;;;;4948627;29;20444;-71
2023/09/26 06:56:07;;;;;;;12.90;7.20;;;;;;;;;;4943867;29;20462;-75
2023/09/26 06:58:33;;;;;;;10.63;7.23;;;;;;;;;;4948317;29;20464;-72
2023/09/26 07:00:59;;;;;;;12.70;7.50;;;;;;;;;;4956462;29;20869;-71
2023/09/26 07:03:29;;;;;;;14.67;7.43;;;;;;;;;;4939051;29;20774;-72
2023/09/26 07:05:56;;;;;;;10.63;7.13;;;;;;;;;;4949561;29;20469;-71
2023/09/26 07:08:22;;;;;;;18.90;6.83;;;;;;;;;;4955615;29;20412;-73
2023/09/26 07:10:49;;;;;;;13.33;7.20;;;;;;;;;;4956380;28;20444;-72
2023/09/26 07:13:15;;;;;;;16.87;7.73;;;;;;;;;;4955730;28;20939;-72
2023/09/26 07:15:42;;;;;;;15.80;7.93;;;;;;;;;;4950435;29;20433;-73
2023/09/26 07:18:09;;;;;;;12.00;7.97;;;;;;;;;;4936905;29;20457;-72
2023/09/26 07:20:38;;;;;;;15.70;7.80;;;;;;;;;;4937233;29;20446;-73
2023/09/26 07:23:04;;;;;;;16.57;8.53;;;;;;;;;;4942636;29;20432;-72
2023/09/26 07:25:30;;;;;;;52.93;17.17;;;;;;;;;;4942705;29;20460;-75
2023/09/26 07:27:56;;;;;;;33.27;11.33;;;;;;;;;;4939442;29;20433;-70
2023/09/26 07:30:22;;;;;;;39.83;10.97;;;;;;;;;;4938896;29;20928;-70
2023/09/26 07:32:48;;;;;;;23.60;9.00;;;;;;;;;;4947563;28;20433;-72
2023/09/26 07:35:14;;;;;;;24.17;8.27;;;;;;;;;;4940659;28;20601;-70
2023/09/26 07:37:41;;;;;;;13.63;7.80;;;;;;;;;;4943427;29;20440;-72
2023/09/26 07:40:08;;;;;;;13.70;6.47;;;;;;;;;;4935219;29;20457;-71
2023/09/26 07:42:35;;;;;;;15.83;6.23;;;;;;;;;;4946838;29;20445;-70
2023/09/26 07:45:01;;;;;;;22.63;8.57;;;;;;;;;;4950597;28;20433;-71
2023/09/26 07:47:27;;;;;;;18.00;7.80;;;;;;;;;;4948243;29;20801;-70
2023/09/26 07:49:53;;;;;;;18.33;7.90;;;;;;;;;;4944687;29;20438;-72
2023/09/26 07:52:22;;;;;;;11.83;7.00;;;;;;;;;;4947410;29;20436;-69
2023/09/26 07:54:48;;;;;;;10.60;5.90;;;;;;;;;;4940490;28;20880;-71
2023/09/26 07:57:14;;;;;;;13.70;7.10;;;;;;;;;;4946486;29;20435;-73
2023/09/26 07:59:40;;;;;;;8.00;6.27;;;;;;;;;;4945645;29;20500;-74
2023/09/26 08:02:06;;;;;;;12.73;6.40;;;;;;;;;;4954205;29;20460;-72
2023/09/26 08:04:32;;;;;;;12.67;6.07;;;;;;;;;;4951842;29;20429;-72
2023/09/26 08:06:58;;;;;;;11.53;6.13;;;;;;;;;;4953992;29;20515;-73
2023/09/26 08:09:24;;;;;;;12.10;6.30;;;;;;;;;;4952663;29;20853;-75
2023/09/26 08:11:50;;;;;;;9.43;6.13;;;;;;;;;;4945990;29;20877;-71
2023/09/26 08:14:16;;;;;;;12.40;7.30;;;;;;;;;;4937791;29;20792;-72
2023/09/26 08:16:42;;;;;;;16.30;6.17;;;;;;;;;;4942041;29;20437;-72
2023/09/26 08:19:08;;;;;;;11.50;7.00;;;;;;;;;;4951110;29;20531;-74
2023/09/26 08:21:34;;;;;;;7.97;5.80;;;;;;;;;;4941830;29;20469;-73
2023/09/26 08:24:02;;;;;;;10.17;6.10;;;;;;;;;;4944104;29;20807;-73
2023/09/26 08:26:29;;;;;;;13.53;6.97;;;;;;;;;;4941241;28;20425;-73
2023/09/26 08:28:54;;;;;;;14.77;7.30;;;;;;;;;;4946664;28;20807;-73
2023/09/26 08:31:20;;;;;;;15.73;6.53;;;;;;;;;;4941068;29;20511;-73
2023/09/26 08:33:49;;;;;;;20.30;6.80;;;;;;;;;;4939242;29;20937;-73
2023/09/26 08:36:16;;;;;;;11.43;7.00;;;;;;;;;;4946548;29;20464;-73
2023/09/26 08:38:43;;;;;;;14.67;6.97;;;;;;;;;;4935940;29;20465;-73
2023/09/26 08:41:10;;;;;;;12.50;7.17;;;;;;;;;;4935157;29;20532;-72
2023/09/26 08:43:36;;;;;;;42.63;12.40;;;;;;;;;;4941333;29;20444;-73
2023/09/26 08:46:04;;;;;;;19.40;7.90;;;;;;;;;;4952606;28;20899;-72
2023/09/26 08:48:30;;;;;;;12.80;6.50;;;;;;;;;;4943969;29;20452;-72
2023/09/26 08:50:56;;;;;;;12.13;5.70;;;;;;;;;;4939384;29;20460;-72
2023/09/26 08:53:22;;;;;;;17.30;6.30;;;;;;;;;;4940158;28;20957;-72
2023/09/26 08:55:51;;;;;;;11.20;6.17;;;;;;;;;;4942225;29;20465;-73
2023/09/26 08:58:17;;;;;;;11.03;5.93;;;;;;;;;;4941174;29;20468;-72
2023/09/26 09:00:44;;;;;;;23.37;8.50;;;;;;;;;;4943919;29;20519;-73
2023/09/26 09:03:10;;;;;;;18.33;8.60;;;;;;;;;;4938664;29;21701;-73
2023/09/26 09:05:36;;;;;;;15.10;8.10;;;;;;;;;;4938873;29;20442;-73
2023/09/26 09:08:02;;;;;;;12.30;6.37;;;;;;;;;;4938980;29;20537;-73
2023/09/26 09:10:28;;;;;;;12.20;6.50;;;;;;;;;;4945321;29;20422;-73
2023/09/26 09:13:11;;;;;;;11.43;6.13;;;;;;;;;;4944557;29;20445;-74
2023/09/26 09:15:39;;;;;;;10.80;6.90;;;;;;;;;;4942826;29;20527;-74
2023/09/26 09:18:05;;;;;;;11.27;6.83;;;;;;;;;;4942210;29;20475;-74
2023/09/26 09:20:32;;;;;;;13.23;7.33;;;;;;;;;;4942440;29;20469;-73
2023/09/26 09:22:59;;;;;;;10.50;7.30;;;;;;;;;;4938198;29;20495;-74
2023/09/26 09:25:29;;;;;;;15.10;7.67;;;;;;;;;;4943913;29;20544;-71
2023/09/26 09:27:59;;;;;;;36.97;10.87;;;;;;;;;;4938330;29;20460;-72
2023/09/26 09:30:24;;;;;;;7.87;5.60;;;;;;;;;;4940764;29;20539;-71
2023/09/26 09:32:50;;;;;;;15.23;8.23;;;;;;;;;;4940530;29;20464;-72
2023/09/26 09:35:17;;;;;;;18.40;8.03;;;;;;;;;;4937775;29;20429;-71
2023/09/26 09:37:47;;;;;;;16.03;7.40;;;;;;;;;;4940730;29;20443;-71
2023/09/26 09:40:24;;;;;;;11.00;6.60;;;;;;;;;;4936406;29;20524;-71
2023/09/26 09:42:51;;;;;;;9.27;5.87;;;;;;;;;;4935836;29;20908;-71
2023/09/26 09:45:18;;;;;;;9.57;6.83;;;;;;;;;;4942581;29;20578;-71
2023/09/26 09:47:45;;;;;;;9.40;6.30;;;;;;;;;;4940339;29;20442;-72
2023/09/26 09:50:12;;;;;;;10.43;6.80;;;;;;;;;;4936525;29;20481;-73
2023/09/26 09:52:39;;;;;;;9.57;5.70;;;;;;;;;;4939032;29;20958;-72
2023/09/26 09:55:08;;;;;;;16.33;6.70;;;;;;;;;;4938809;29;20434;-71
2023/09/26 09:57:38;;;;;;;10.13;6.17;;;;;;;;;;4941973;29;20477;-70
2023/09/26 10:00:07;;;;;;;18.10;9.07;;;;;;;;;;4945101;29;20863;-71
2023/09/26 10:02:34;;;;;;;7.73;5.60;;;;;;;;;;4950180;29;20511;-71
2023/09/26 10:05:01;;;;;;;8.53;5.80;;;;;;;;;;4944582;28;20455;-71
2023/09/26 10:07:29;;;;;;;10.17;6.00;;;;;;;;;;4943638;29;20477;-71
2023/09/26 10:09:56;;;;;;;9.90;6.10;;;;;;;;;;4948633;29;20436;-72
2023/09/26 10:12:24;;;;;;;7.93;4.97;;;;;;;;;;4942664;29;21057;-73
2023/09/26 10:14:50;;;;;;;10.40;4.93;;;;;;;;;;4949972;29;20443;-73
2023/09/26 10:17:19;;;;;;;5.30;4.73;;;;;;;;;;4949146;29;20512;-74
2023/09/26 10:19:45;;;;;;;8.73;5.30;;;;;;;;;;4946288;29;21000;-72
2023/09/26 10:22:14;;;;;;;6.47;3.70;;;;;;;;;;4946546;29;20469;-73
2023/09/26 10:24:53;;;;;;;12.50;4.57;;;;;;;;;;4944760;29;20433;-73
2023/09/26 10:27:40;;;;;;;10.87;4.70;;;;;;;;;;4949844;29;20432;-74
2023/09/26 10:30:13;;;;;;;7.83;4.87;;;;;;;;;;4943187;29;20441;-73
2023/09/26 10:32:41;;;;;;;15.23;7.93;;;;;;;;;;4943152;28;20432;-72
2023/09/26 10:35:16;;;;;;;5.33;4.70;;;;;;;;;;4948237;29;20521;-72
2023/09/26 10:37:44;;;;;;;5.27;4.13;;;;;;;;;;4948379;29;20456;-72
2023/09/26 10:40:14;;;;;;;6.20;4.70;;;;;;;;;;4955484;29;20431;-72
2023/09/26 10:42:42;;;;;;;6.03;4.60;;;;;;;;;;4951420;28;20995;-72
2023/09/26 10:45:09;;;;;;;6.17;4.53;;;;;;;;;;4953970;28;20828;-72
2023/09/26 10:47:38;;;;;;;7.70;5.17;;;;;;;;;;4953135;28;20437;-74
2023/09/26 10:50:05;;;;;;;7.10;4.10;;;;;;;;;;4952009;29;20439;-72
2023/09/26 10:52:31;;;;;;;7.93;3.77;;;;;;;;;;4946073;28;20452;-71
2023/09/26 10:54:57;;;;;;;14.53;4.30;;;;;;;;;;4950297;28;20459;-73
2023/09/26 10:57:23;;;;;;;5.93;4.33;;;;;;;;;;4950428;29;20438;-75
2023/09/26 10:59:49;;;;;;;8.30;4.20;;;;;;;;;;4948765;28;20531;-71
2023/09/26 11:02:15;;;;;;;6.77;3.93;;;;;;;;;;4949748;29;21000;-71
2023/09/26 11:04:41;;;;;;;6.87;4.47;;;;;;;;;;4945954;28;20475;-71
2023/09/26 11:07:07;;;;;;;5.77;3.87;;;;;;;;;;4953319;28;20432;-71
2023/09/26 11:09:39;;;;;;;8.30;3.90;;;;;;;;;;4954718;28;20442;-72
2023/09/26 11:12:05;;;;;;;4.70;3.40;;;;;;;;;;4948490;28;20452;-72
2023/09/26 11:14:32;;;;;;;7.83;4.23;;;;;;;;;;4949250;28;20457;-71
2023/09/26 11:16:58;;;;;;;6.43;4.23;;;;;;;;;;4948155;29;20424;-72
2023/09/26 11:19:26;;;;;;;6.53;3.70;;;;;;;;;;4955611;29;20979;-73
2023/09/26 11:21:54;;;;;;;14.23;3.73;;;;;;;;;;4947973;29;20461;-73
2023/09/26 11:24:20;;;;;;;7.33;3.93;;;;;;;;;;4943829;29;20459;-73
2023/09/26 11:26:48;;;;;;;7.20;2.77;;;;;;;;;;4947722;29;20437;-73
2023/09/26 11:29:14;;;;;;;5.53;2.73;;;;;;;;;;4945122;28;20413;-73
2023/09/26 11:31:41;;;;;;;7.27;3.10;;;;;;;;;;4936782;29;20512;-73
2023/09/26 11:34:08;;;;;;;5.93;3.10;;;;;;;;;;4950047;28;20883;-73
2023/09/26 11:36:34;;;;;;;8.57;3.07;;;;;;;;;;4947340;28;20789;-73
2023/09/26 11:39:00;;;;;;;6.80;3.67;;;;;;;;;;4955356;29;20461;-73
2023/09/26 11:41:27;;;;;;;5.17;2.87;;;;;;;;;;4946745;29;20480;-73
2023/09/26 11:43:55;;;;;;;4.50;2.60;;;;;;;;;;4943949;29;20429;-72
2023/09/26 11:46:21;;;;;;;3.40;2.80;;;;;;;;;;4942507;28;20840;-72
2023/09/26 11:48:47;;;;;;;3.17;2.20;;;;;;;;;;4942938;29;20440;-73
2023/09/26 11:51:14;;;;;;;2.47;2.07;;;;;;;;;;4939299;29;20452;-73
2023/09/26 11:53:41;;;;;;;3.00;2.43;;;;;;;;;;4944271;29;20484;-73
2023/09/26 11:56:08;;;;;;;4.27;2.50;;;;;;;;;;4946551;29;20472;-73
2023/09/26 11:58:36;;;;;;;2.90;2.20;;;;;;;;;;4947065;29;20559;-73
2023/09/26 12:01:02;;;;;;;2.73;2.03;;;;;;;;;;4940798;28;21557;-73
2023/09/26 12:03:27;;;;;;;3.47;2.13;;;;;;;;;;4948293;29;20511;-72
2023/09/26 12:05:53;;;;;;;4.40;2.30;;;;;;;;;;4944886;29;20500;-72
2023/09/26 12:08:19;;;;;;;4.47;2.20;;;;;;;;;;4948224;29;20466;-74
2023/09/26 12:10:45;;;;;;;4.80;2.67;;;;;;;;;;4948154;29;20460;-74
2023/09/26 12:13:11;;;;;;;4.40;2.70;;;;;;;;;;4950787;29;20421;-74
2023/09/26 12:15:37;;;;;;;6.73;1.77;;;;;;;;;;4948479;29;20447;-73
2023/09/26 12:18:03;;;;;;;7.07;2.00;;;;;;;;;;4941907;29;20445;-74
2023/09/26 12:20:29;;;;;;;3.33;1.97;;;;;;;;;;4950792;28;20440;-74
2023/09/26 12:22:56;;;;;;;3.10;2.00;;;;;;;;;;4945147;29;20456;-72
2023/09/26 12:25:23;;;;;;;2.47;2.10;;;;;;;;;;4943834;29;20440;-72
2023/09/26 12:27:50;;;;;;;3.30;2.47;;;;;;;;;;4939043;29;20494;-72
2023/09/26 12:30:16;;;;;;;3.33;2.30;;;;;;;;;;4946093;29;20863;-74
2023/09/26 12:32:42;;;;;;;2.07;1.93;;;;;;;;;;4947142;29;20567;-74
2023/09/26 12:35:09;;;;;;;2.97;2.13;;;;;;;;;;4950933;29;20468;-74
2023/09/26 12:37:36;;;;;;;3.67;2.20;;;;;;;;;;4944971;29;20453;-73
2023/09/26 12:40:07;;;;;;;4.90;2.00;;;;;;;;;;4949560;29;20624;-72
2023/09/26 12:42:33;;;;;;;4.40;2.10;;;;;;;;;;4948032;28;20460;-70
2023/09/26 12:44:59;;;;;;;3.30;1.90;;;;;;;;;;4954816;29;20988;-73
2023/09/26 12:47:25;;;;;;;5.30;2.40;;;;;;;;;;4937823;29;20441;-72
2023/09/26 12:49:51;;;;;;;4.13;2.00;;;;;;;;;;4947923;29;20441;-72
2023/09/26 12:52:17;;;;;;;2.50;1.90;;;;;;;;;;4954036;29;21049;-71
2023/09/26 12:54:44;;;;;;;3.40;1.90;;;;;;;;;;4947573;29;21099;-70
2023/09/26 12:57:10;;;;;;;3.00;2.03;;;;;;;;;;4951718;29;20436;-71
2023/09/26 12:59:37;;;;;;;2.70;1.50;;;;;;;;;;4945351;29;20916;-70
2023/09/26 13:02:04;;;;;;;5.00;2.20;;;;;;;;;;4945343;29;20907;-70
2023/09/26 13:04:31;;;;;;;11.70;2.70;;;;;;;;;;4948852;28;20846;-70
2023/09/26 13:06:57;;;;;;;2.13;1.50;;;;;;;;;;4940399;29;20435;-70
2023/09/26 13:09:23;;;;;;;3.20;2.00;;;;;;;;;;4946432;29;20437;-71
2023/09/26 13:11:49;;;;;;;2.00;1.37;;;;;;;;;;4938420;29;20452;-70
2023/09/26 13:14:15;;;;;;;2.47;1.57;;;;;;;;;;4950193;29;20433;-71
2023/09/26 13:16:41;;;;;;;3.20;1.80;;;;;;;;;;4947565;29;20433;-75
2023/09/26 13:19:07;;;;;;;1.70;1.50;;;;;;;;;;4940379;29;20472;-71
2023/09/26 13:21:33;;;;;;;4.40;1.80;;;;;;;;;;4950708;29;20456;-71
2023/09/26 13:23:59;;;;;;;2.10;1.70;;;;;;;;;;4949207;29;20735;-71
2023/09/26 13:26:25;;;;;;;2.93;2.07;;;;;;;;;;4952776;29;20428;-70
2023/09/26 13:28:51;;;;;;;7.90;2.13;;;;;;;;;;4953048;29;20511;-73
2023/09/26 13:31:17;;;;;;;3.00;2.03;;;;;;;;;;4945113;29;20464;-70
2023/09/26 13:33:43;;;;;;;3.73;2.60;;;;;;;;;;4944106;28;20491;-71
2023/09/26 13:36:09;;;;;;;4.90;1.90;;;;;;;;;;4945272;28;20429;-71
2023/09/26 13:38:35;;;;;;;2.10;1.30;;;;;;;;;;4943770;29;20468;-71
2023/09/26 13:41:01;;;;;;;2.30;1.77;;;;;;;;;;4944209;29;20975;-71
2023/09/26 13:43:27;;;;;;;2.60;1.63;;;;;;;;;;4939922;28;20437;-70
2023/09/26 13:45:54;;;;;;;2.70;1.67;;;;;;;;;;4952790;29;20448;-70
2023/09/26 13:48:20;;;;;;;1.70;1.50;;;;;;;;;;4947363;28;20421;-73
2023/09/26 13:50:46;;;;;;;2.50;1.50;;;;;;;;;;4943260;29;20467;-71
2023/09/26 13:53:12;;;;;;;2.40;1.67;;;;;;;;;;4944422;29;20476;-70
2023/09/26 13:55:38;;;;;;;2.47;1.53;;;;;;;;;;4947245;29;20468;-71
2023/09/26 13:58:04;;;;;;;4.00;1.73;;;;;;;;;;4940259;29;20445;-71
2023/09/26 14:00:32;;;;;;;6.03;1.90;;;;;;;;;;4952916;29;20499;-71
2023/09/26 14:02:58;;;;;;;5.33;2.03;;;;;;;;;;4951947;29;20420;-71
2023/09/26 14:05:24;;;;;;;2.10;1.63;;;;;;;;;;4953154;29;20496;-71
2023/09/26 14:07:50;;;;;;;2.83;1.67;;;;;;;;;;4951781;29;20564;-71
2023/09/26 14:10:16;;;;;;;10.43;3.90;;;;;;;;;;4952721;29;20440;-71
2023/09/26 14:12:43;;;;;;;3.63;1.90;;;;;;;;;;4952394;29;20994;-70
2023/09/26 14:15:09;;;;;;;3.80;1.87;;;;;;;;;;4952456;29;20916;-72
2023/09/26 14:17:35;;;;;;;3.53;2.33;;;;;;;;;;4952614;29;20475;-71
2023/09/26 14:20:01;;;;;;;3.47;2.30;;;;;;;;;;4952406;29;20467;-74
2023/09/26 14:22:27;;;;;;;3.00;2.37;;;;;;;;;;4943227;29;20539;-71
2023/09/26 14:24:54;;;;;;;6.20;2.40;;;;;;;;;;4944313;29;20417;-70
2023/09/26 14:27:20;;;;;;;5.53;2.70;;;;;;;;;;4947980;28;20424;-70
2023/09/26 14:29:46;;;;;;;3.83;2.67;;;;;;;;;;4944109;29;20429;-72
2023/09/26 14:32:12;;;;;;;4.10;2.30;;;;;;;;;;4947660;29;20945;-71
2023/09/26 14:34:38;;;;;;;3.67;2.40;;;;;;;;;;4952578;29;20409;-71
2023/09/26 14:37:04;;;;;;;7.03;2.93;;;;;;;;;;4937148;29;21065;-71
2023/09/26 14:39:30;;;;;;;5.17;3.00;;;;;;;;;;4949684;29;21038;-71
2023/09/26 14:41:56;;;;;;;4.50;2.50;;;;;;;;;;4945663;29;20456;-71
2023/09/26 14:44:22;;;;;;;8.40;3.17;;;;;;;;;;4953295;28;20897;-71
2023/09/26 14:46:48;;;;;;;2.80;2.40;;;;;;;;;;4955991;29;20482;-71
2023/09/26 14:49:14;;;;;;;4.17;2.57;;;;;;;;;;4953160;28;20498;-72
2023/09/26 14:51:40;;;;;;;2.53;2.40;;;;;;;;;;4950005;29;20441;-71
2023/09/26 14:54:06;;;;;;;3.40;2.90;;;;;;;;;;4935722;29;20432;-72
2023/09/26 14:56:32;;;;;;;4.30;2.93;;;;;;;;;;4936820;29;20424;-73
2023/09/26 14:58:58;;;;;;;4.40;2.60;;;;;;;;;;4936889;29;20473;-73
2023/09/26 15:01:24;;;;;;;4.90;2.67;;;;;;;;;;4936637;29;20825;-74
2023/09/26 15:03:52;;;;;;;4.43;2.63;;;;;;;;;;4936820;29;20472;-70
2023/09/26 15:06:18;;;;;;;4.50;2.87;;;;;;;;;;4950178;29;20424;-70
2023/09/26 15:08:44;;;;;;;4.13;2.40;;;;;;;;;;4956271;29;20435;-69
2023/09/26 15:11:10;;;;;;;4.53;3.03;;;;;;;;;;4955855;29;20457;-70
2023/09/26 15:13:35;;;;;;;4.70;3.00;;;;;;;;;;4955856;29;20913;-69
2023/09/26 15:16:02;;;;;;;4.43;2.70;;;;;;;;;;4955359;29;20436;-69
2023/09/26 15:18:28;;;;;;;5.30;2.53;;;;;;;;;;4936652;29;20531;-68
2023/09/26 15:20:54;;;;;;;3.13;2.10;;;;;;;;;;4936998;29;20437;-68
2023/09/26 15:23:20;;;;;;;4.10;2.97;;;;;;;;;;4940235;29;20441;-69
2023/09/26 15:25:46;;;;;;;5.90;2.97;;;;;;;;;;4944094;29;20414;-69
2023/09/26 15:28:13;;;;;;;6.27;2.33;;;;;;;;;;4941454;29;20409;-69
2023/09/26 15:30:39;;;;;;;3.50;2.50;;;;;;;;;;4955519;28;20954;-70
2023/09/26 15:33:05;;;;;;;6.43;2.93;;;;;;;;;;4955606;29;20409;-70
2023/09/26 15:35:31;;;;;;;5.13;2.37;;;;;;;;;;4955405;29;20785;-69
2023/09/26 15:37:58;;;;;;;3.40;2.33;;;;;;;;;;4955273;29;20464;-69
2023/09/26 15:40:24;;;;;;;5.13;2.80;;;;;;;;;;4955417;29;20461;-70
2023/09/26 15:42:50;;;;;;;5.37;2.80;;;;;;;;;;4954933;28;20421;-70
2023/09/26 15:45:18;;;;;;;7.33;2.63;;;;;;;;;;4954013;29;20428;-70
2023/09/26 15:47:44;;;;;;;4.00;2.60;;;;;;;;;;4950359;28;20437;-69
2023/09/26 15:50:10;;;;;;;2.83;2.30;;;;;;;;;;4943461;29;21029;-70
2023/09/26 15:52:36;;;;;;;4.70;2.73;;;;;;;;;;4936187;29;20432;-70
2023/09/26 15:55:02;;;;;;;3.87;2.60;;;;;;;;;;4935742;29;20458;-70
2023/09/26 15:57:28;;;;;;;4.83;2.67;;;;;;;;;;4936022;29;20442;-70
2023/09/26 15:59:54;;;;;;;5.10;2.40;;;;;;;;;;4941651;29;20903;-72
2023/09/26 16:02:20;;;;;;;4.30;2.33;;;;;;;;;;4950617;28;20460;-69
2023/09/26 16:04:46;;;;;;;3.70;2.20;;;;;;;;;;4951506;29;20901;-69
2023/09/26 16:07:12;;;;;;;2.77;2.33;;;;;;;;;;4948841;29;20409;-70
2023/09/26 16:09:38;;;;;;;4.80;3.00;;;;;;;;;;4947907;29;20512;-72
2023/09/26 16:12:04;;;;;;;6.53;2.50;;;;;;;;;;4948851;29;20535;-69
2023/09/26 16:14:30;;;;;;;5.70;3.50;;;;;;;;;;4948515;29;20927;-69
2023/09/26 16:16:56;;;;;;;7.30;2.90;;;;;;;;;;4949088;29;20435;-70
2023/09/26 16:19:22;;;;;;;3.90;3.00;;;;;;;;;;4942970;29;20469;-70
2023/09/26 16:21:48;;;;;;;4.23;2.73;;;;;;;;;;4944265;29;20532;-70
2023/09/26 16:24:14;;;;;;;4.10;2.63;;;;;;;;;;4947248;29;20852;-72
2023/09/26 16:26:40;;;;;;;4.83;3.00;;;;;;;;;;4944421;28;20484;-70
2023/09/26 16:29:06;;;;;;;4.53;2.57;;;;;;;;;;4945135;29;20437;-71
2023/09/26 16:31:32;;;;;;;4.10;2.90;;;;;;;;;;4949007;28;20444;-72
2023/09/26 16:33:58;;;;;;;5.23;3.33;;;;;;;;;;4944123;29;20433;-71
2023/09/26 16:36:24;;;;;;;6.03;3.07;;;;;;;;;;4949182;28;20573;-72
2023/09/26 16:38:50;;;;;;;5.10;3.07;;;;;;;;;;4954812;28;20468;-72
2023/09/26 16:41:16;;;;;;;3.30;2.50;;;;;;;;;;4943136;29;20457;-69
2023/09/26 16:43:42;;;;;;;6.13;3.30;;;;;;;;;;4950662;28;20435;-71
2023/09/26 16:46:08;;;;;;;3.60;2.80;;;;;;;;;;4945228;29;20882;-70
2023/09/26 16:48:34;;;;;;;4.67;3.30;;;;;;;;;;4953444;29;20440;-69
2023/09/26 16:51:00;;;;;;;4.77;3.27;;;;;;;;;;4942338;28;20453;-72
2023/09/26 16:53:26;;;;;;;16.63;3.33;;;;;;;;;;4945276;29;20432;-69
2023/09/26 16:55:52;;;;;;;6.27;3.37;;;;;;;;;;4952954;29;20428;-72
2023/09/26 16:58:18;;;;;;;5.93;3.23;;;;;;;;;;4943566;29;20452;-72
2023/09/26 17:00:44;;;;;;;9.00;3.03;;;;;;;;;;4952309;29;20539;-72
2023/09/26 17:03:10;;;;;;;5.30;3.40;;;;;;;;;;4938431;29;20951;-72
2023/09/26 17:05:37;;;;;;;4.00;2.77;;;;;;;;;;4953117;29;20432;-72
2023/09/26 17:08:03;;;;;;;3.27;2.80;;;;;;;;;;4944447;28;20422;-70
2023/09/26 17:10:29;;;;;;;5.03;2.90;;;;;;;;;;4949791;29;20424;-69
2023/09/26 17:12:57;;;;;;;6.30;3.80;;;;;;;;;;4939777;29;20473;-69
2023/09/26 17:15:23;;;;;;;8.83;3.30;;;;;;;;;;4949856;29;20455;-70
2023/09/26 17:17:49;;;;;;;9.50;3.07;;;;;;;;;;4952110;29;20924;-70
2023/09/26 17:20:15;;;;;;;5.80;3.50;;;;;;;;;;4954816;29;20468;-69
2023/09/26 17:22:42;;;;;;;10.20;3.80;;;;;;;;;;4940016;29;20420;-70
2023/09/26 17:25:08;;;;;;;5.97;3.23;;;;;;;;;;4955010;29;20409;-69
2023/09/26 17:27:36;;;;;;;4.17;3.20;;;;;;;;;;4950341;29;20473;-69
2023/09/26 17:30:03;;;;;;;7.33;3.73;;;;;;;;;;4954695;28;20429;-69
2023/09/26 17:32:29;;;;;;;4.43;2.97;;;;;;;;;;4954264;28;20940;-70
2023/09/26 17:34:55;;;;;;;9.47;4.20;;;;;;;;;;4945153;29;20444;-70
2023/09/26 17:37:22;;;;;;;6.20;3.27;;;;;;;;;;4951545;29;20432;-70
2023/09/26 17:39:48;;;;;;;7.77;3.97;;;;;;;;;;4953330;28;20472;-70
2023/09/26 17:42:14;;;;;;;6.60;3.23;;;;;;;;;;4951220;29;20932;-69
2023/09/26 17:44:41;;;;;;;5.13;3.40;;;;;;;;;;4957675;29;20513;-69
2023/09/26 17:47:06;;;;;;;8.03;3.87;;;;;;;;;;4953666;28;20417;-69
2023/09/26 17:49:33;;;;;;;7.50;3.83;;;;;;;;;;4961279;29;20455;-69
2023/09/26 17:51:58;;;;;;;6.83;4.20;;;;;;;;;;4954794;29;20432;-69
2023/09/26 17:54:24;;;;;;;8.40;4.27;;;;;;;;;;4949117;29;20431;-68
2023/09/26 17:56:50;;;;;;;8.30;4.43;;;;;;;;;;4947566;29;20905;-69
2023/09/26 17:59:16;;;;;;;7.83;5.10;;;;;;;;;;4955503;29;20554;-69
2023/09/26 18:01:42;;;;;;;8.53;3.70;;;;;;;;;;4955927;29;20881;-69
2023/09/26 18:04:08;;;;;;;7.27;4.30;;;;;;;;;;4955094;29;20417;-68
2023/09/26 18:06:34;;;;;;;10.90;4.10;;;;;;;;;;4955186;29;20425;-69
2023/09/26 18:09:00;;;;;;;5.90;4.00;;;;;;;;;;4937644;29;20433;-68
2023/09/26 18:11:26;;;;;;;8.87;4.03;;;;;;;;;;4949578;29;20453;-68
2023/09/26 18:13:52;;;;;;;6.60;4.23;;;;;;;;;;4942684;29;20433;-69
2023/09/26 18:16:18;;;;;;;7.60;4.00;;;;;;;;;;4944839;28;20523;-68
2023/09/26 18:18:44;;;;;;;10.93;4.50;;;;;;;;;;4952950;28;20468;-68
2023/09/26 18:21:10;;;;;;;5.63;3.97;;;;;;;;;;4949524;29;20938;-70
2023/09/26 18:23:37;;;;;;;8.10;4.47;;;;;;;;;;4938746;29;20410;-70
2023/09/26 18:26:04;;;;;;;6.33;4.40;;;;;;;;;;4961248;29;20417;-68
2023/09/26 18:28:31;;;;;;;7.97;4.40;;;;;;;;;;4966736;29;20432;-74
2023/09/26 18:30:57;;;;;;;6.60;4.10;;;;;;;;;;4959191;28;20456;-68
2023/09/26 18:33:23;;;;;;;8.07;4.33;;;;;;;;;;4957162;29;20449;-69
2023/09/26 18:35:49;;;;;;;5.67;4.60;;;;;;;;;;4957115;29;20413;-69
2023/09/26 18:38:15;;;;;;;12.20;4.60;;;;;;;;;;4950150;29;20435;-68
2023/09/26 18:40:41;;;;;;;8.90;4.90;;;;;;;;;;4954791;28;20440;-68
2023/09/26 18:43:07;;;;;;;7.67;4.60;;;;;;;;;;4953836;28;20508;-68
2023/09/26 18:45:39;;;;;;;7.47;4.57;;;;;;;;;;4953570;29;20408;-68
2023/09/26 18:50:36;;;;;;;8.80;4.37;;;;;;;;;;4931043;29;20539;-70
2023/09/26 18:53:02;;;;;;;6.50;4.73;;;;;;;;;;4927869;29;20410;-70
2023/09/26 18:55:28;;;;;;;8.10;5.27;;;;;;;;;;4929067;29;20410;-69
2023/09/26 18:57:54;;;;;;;8.00;5.30;;;;;;;;;;4927554;29;20411;-69
2023/09/26 19:00:20;;;;;;;8.23;4.90;;;;;;;;;;4929157;29;20473;-69
2023/09/26 19:02:46;;;;;;;9.50;5.00;;;;;;;;;;4923299;29;20652;-69
2023/09/26 19:05:12;;;;;;;7.80;4.80;;;;;;;;;;4926019;29;20414;-69
2023/09/26 19:07:39;;;;;;;7.20;4.93;;;;;;;;;;4925329;29;20454;-69
2023/09/26 19:10:05;;;;;;;9.33;4.77;;;;;;;;;;4925766;29;20438;-70
2023/09/26 19:12:32;;;;;;;8.20;4.53;;;;;;;;;;4919041;29;20868;-68
2023/09/26 19:14:58;;;;;;;7.43;4.80;;;;;;;;;;4917195;29;21037;-71
2023/09/26 19:17:24;;;;;;;9.77;6.53;;;;;;;;;;4913404;29;20261;-70
2023/09/26 19:19:50;;;;;;;10.13;6.00;;;;;;;;;;4916909;29;20477;-69
2023/09/26 19:22:16;;;;;;;8.07;5.63;;;;;;;;;;4922655;29;20792;-69
2023/09/26 19:24:42;;;;;;;19.77;7.20;;;;;;;;;;4921752;29;20461;-69
2023/09/26 19:27:08;;;;;;;9.03;6.50;;;;;;;;;;4923662;29;20505;-71
2023/09/26 19:29:34;;;;;;;13.70;6.70;;;;;;;;;;4921191;29;20470;-69
2023/09/26 19:32:01;;;;;;;13.23;7.20;;;;;;;;;;4920034;29;20449;-69
2023/09/26 19:34:27;;;;;;;14.97;7.63;;;;;;;;;;4921585;29;20427;-70
2023/09/26 19:36:53;;;;;;;16.00;7.80;;;;;;;;;;4920660;29;20442;-69
2023/09/26 19:39:19;;;;;;;15.30;8.40;;;;;;;;;;4921458;29;20486;-69
2023/09/26 19:41:45;;;;;;;13.50;7.97;;;;;;;;;;4921614;29;20419;-70
2023/09/26 19:44:11;;;;;;;12.40;7.40;;;;;;;;;;4920947;29;20419;-69
2023/09/26 19:46:37;;;;;;;14.67;8.77;;;;;;;;;;4919321;29;20422;-70
2023/09/26 19:49:03;;;;;;;12.03;6.70;;;;;;;;;;4921322;29;20481;-69
2023/09/26 19:51:31;;;;;;;14.60;6.70;;;;;;;;;;4920124;29;20414;-70
2023/09/26 19:53:57;;;;;;;13.50;7.00;;;;;;;;;;4920043;29;20427;-69
2023/09/26 19:56:26;;;;;;;14.87;7.30;;;;;;;;;;4918538;29;20490;-69
2023/09/26 19:58:52;;;;;;;13.20;7.20;;;;;;;;;;4918687;29;20470;-69
2023/09/26 20:01:21;;;;;;;11.17;6.80;;;;;;;;;;4902292;29;20432;-70
2023/09/26 20:03:47;;;;;;;14.80;7.23;;;;;;;;;;4899379;29;20417;-69
2023/09/26 20:06:13;;;;;;;11.67;6.40;;;;;;;;;;4899847;29;20510;-70
2023/09/26 20:08:39;;;;;;;16.63;7.17;;;;;;;;;;4902063;29;20455;-69
2023/09/26 20:11:05;;;;;;;14.70;7.97;;;;;;;;;;4902857;29;20491;-69
2023/09/26 20:13:31;;;;;;;10.80;7.13;;;;;;;;;;4903094;29;20419;-69
2023/09/26 20:15:59;;;;;;;18.23;6.90;;;;;;;;;;4914822;29;20494;-69
2023/09/26 20:18:25;;;;;;;16.67;8.03;;;;;;;;;;4921375;29;20570;-69
2023/09/26 20:20:51;;;;;;;15.40;7.60;;;;;;;;;;4918374;29;20900;-70
2023/09/26 20:23:17;;;;;;;14.00;8.40;;;;;;;;;;4912681;29;20942;-69
2023/09/26 20:25:43;;;;;;;12.23;7.70;;;;;;;;;;4904276;29;20435;-69
2023/09/26 20:28:09;;;;;;;16.90;7.80;;;;;;;;;;4920546;29;20404;-70
2023/09/26 20:30:35;;;;;;;15.77;8.50;;;;;;;;;;4921682;29;20420;-69
2023/09/26 20:33:01;;;;;;;12.30;7.60;;;;;;;;;;4930210;29;20439;-69
2023/09/26 20:35:27;;;;;;;17.10;7.80;;;;;;;;;;4933427;29;20406;-69
2023/09/26 20:37:53;;;;;;;13.73;8.57;;;;;;;;;;4923134;29;20973;-70